sensor_id;sensor_type;location;lat;lon;timestamp;pressure;altitude;pressure_sealevel;temperature;humidity
39613;BME280;25303;48.896;13.342;2023-04-26T00:00:26;92586.28;;;4.74;66.30
39613;BME280;25303;48.896;13.342;2023-04-26T00:03:11;92578.47;;;4.75;66.19
39613;BME280;25303;48.896;13.342;2023-04-26T00:05:55;92582.66;;;4.76;65.97
39613;BME280;25303;48.896;13.342;2023-04-26T00:08:38;92578.38;;;4.77;65.80
39613;BME280;25303;48.896;13.342;2023-04-26T00:11:22;92578.38;;;4.77;66.01
39613;BME280;25303;48.896;13.342;2023-04-26T00:14:06;92573.28;;;4.77;65.85
39613;BME280;25303;48.896;13.342;2023-04-26T00:16:49;92577.94;;;4.71;65.55
39613;BME280;25303;48.896;13.342;2023-04-26T00:19:32;92575.63;;;4.68;65.53
39613;BME280;25303;48.896;13.342;2023-04-26T00:22:15;92564.06;;;4.64;65.48
39613;BME280;25303;48.896;13.342;2023-04-26T00:24:58;92555.88;;;4.61;65.68
39613;BME280;25303;48.896;13.342;2023-04-26T00:27:41;92554.25;;;4.60;65.78
39613;BME280;25303;48.896;13.342;2023-04-26T00:30:25;92558.00;;;4.55;65.72
39613;BME280;25303;48.896;13.342;2023-04-26T00:33:08;92567.09;;;4.48;65.67
39613;BME280;25303;48.896;13.342;2023-04-26T00:35:51;92564.13;;;4.43;65.53
39613;BME280;25303;48.896;13.342;2023-04-26T00:38:34;92570.41;;;4.39;65.58
39613;BME280;25303;48.896;13.342;2023-04-26T00:41:17;92566.75;;;4.32;65.49
39613;BME280;25303;48.896;13.342;2023-04-26T00:44:00;92560.19;;;4.29;65.68
39613;BME280;25303;48.896;13.342;2023-04-26T00:46:45;92565.38;;;4.28;65.75
39613;BME280;25303;48.896;13.342;2023-04-26T00:49:28;92571.66;;;4.23;65.84
39613;BME280;25303;48.896;13.342;2023-04-26T00:52:12;92569.38;;;4.20;65.82
39613;BME280;25303;48.896;13.342;2023-04-26T00:54:55;92570.66;;;4.15;65.57
39613;BME280;25303;48.896;13.342;2023-04-26T00:57:39;92574.91;;;4.04;65.80
39613;BME280;25303;48.896;13.342;2023-04-26T01:00:21;92568.56;;;3.99;65.93
39613;BME280;25303;48.896;13.342;2023-04-26T01:03:06;92566.16;;;3.97;66.41
39613;BME280;25303;48.896;13.342;2023-04-26T01:05:50;92568.72;;;3.97;66.50
39613;BME280;25303;48.896;13.342;2023-04-26T01:08:33;92572.19;;;3.96;66.37
39613;BME280;25303;48.896;13.342;2023-04-26T01:11:16;92568.72;;;3.97;66.40
39613;BME280;25303;48.896;13.342;2023-04-26T01:14:02;92562.34;;;3.91;65.79
39613;BME280;25303;48.896;13.342;2023-04-26T01:16:45;92571.84;;;3.89;66.21
39613;BME280;25303;48.896;13.342;2023-04-26T01:19:29;92574.53;;;3.88;66.01
39613;BME280;25303;48.896;13.342;2023-04-26T01:22:13;92578.94;;;3.86;66.27
39613;BME280;25303;48.896;13.342;2023-04-26T01:24:58;92580.00;;;3.83;66.11
39613;BME280;25303;48.896;13.342;2023-04-26T01:27:43;92570.28;;;3.77;66.04
39613;BME280;25303;48.896;13.342;2023-04-26T01:30:26;92569.50;;;3.76;66.15
39613;BME280;25303;48.896;13.342;2023-04-26T01:33:09;92576.22;;;3.77;66.24
39613;BME280;25303;48.896;13.342;2023-04-26T01:35:52;92590.56;;;3.78;66.23
39613;BME280;25303;48.896;13.342;2023-04-26T01:38:36;92585.19;;;3.82;66.50
39613;BME280;25303;48.896;13.342;2023-04-26T01:41:20;92591.25;;;3.80;66.15
39613;BME280;25303;48.896;13.342;2023-04-26T01:44:03;92592.97;;;3.80;66.32
39613;BME280;25303;48.896;13.342;2023-04-26T01:46:46;92591.81;;;3.73;66.66
39613;BME280;25303;48.896;13.342;2023-04-26T01:49:29;92591.34;;;3.79;66.46
39613;BME280;25303;48.896;13.342;2023-04-26T01:52:13;92592.19;;;3.79;66.47
39613;BME280;25303;48.896;13.342;2023-04-26T01:54:56;92592.97;;;3.80;66.53
39613;BME280;25303;48.896;13.342;2023-04-26T01:57:42;92597.13;;;3.81;66.41
39613;BME280;25303;48.896;13.342;2023-04-26T02:00:25;92591.25;;;3.80;66.81
39613;BME280;25303;48.896;13.342;2023-04-26T02:03:08;92594.81;;;3.78;66.66
39613;BME280;25303;48.896;13.342;2023-04-26T02:05:52;92588.94;;;3.77;66.79
39613;BME280;25303;48.896;13.342;2023-04-26T02:08:34;92592.28;;;3.78;67.09
39613;BME280;25303;48.896;13.342;2023-04-26T02:11:17;92590.56;;;3.78;66.92
39613;BME280;25303;48.896;13.342;2023-04-26T02:14:02;92588.00;;;3.78;67.02
39613;BME280;25303;48.896;13.342;2023-04-26T02:16:44;92578.75;;;3.77;66.85
39613;BME280;25303;48.896;13.342;2023-04-26T02:19:28;92579.44;;;3.79;66.97
39613;BME280;25303;48.896;13.342;2023-04-26T02:22:11;92576.91;;;3.79;67.10
39613;BME280;25303;48.896;13.342;2023-04-26T02:24:55;92578.63;;;3.79;67.02
39613;BME280;25303;48.896;13.342;2023-04-26T02:27:41;92585.47;;;3.78;67.16
39613;BME280;25303;48.896;13.342;2023-04-26T02:30:25;92578.75;;;3.77;67.12
39613;BME280;25303;48.896;13.342;2023-04-26T02:33:08;92573.75;;;3.76;67.12
39613;BME280;25303;48.896;13.342;2023-04-26T02:35:51;92567.88;;;3.75;67.22
39613;BME280;25303;48.896;13.342;2023-04-26T02:38:35;92571.22;;;3.76;67.07
39613;BME280;25303;48.896;13.342;2023-04-26T02:41:19;92572.97;;;3.75;67.38
39613;BME280;25303;48.896;13.342;2023-04-26T02:44:02;92576.69;;;3.71;67.25
39613;BME280;25303;48.896;13.342;2023-04-26T02:46:47;92577.84;;;3.67;67.29
39613;BME280;25303;48.896;13.342;2023-04-26T02:49:30;92573.38;;;3.59;66.93
39613;BME280;25303;48.896;13.342;2023-04-26T02:52:13;92578.03;;;3.54;67.16
39613;BME280;25303;48.896;13.342;2023-04-26T02:54:56;92577.22;;;3.54;67.41
39613;BME280;25303;48.896;13.342;2023-04-26T02:57:39;92577.44;;;3.50;67.38
39613;BME280;25303;48.896;13.342;2023-04-26T03:00:22;92581.19;;;3.46;67.25
39613;BME280;25303;48.896;13.342;2023-04-26T03:03:07;92581.78;;;3.39;67.17
39613;BME280;25303;48.896;13.342;2023-04-26T03:05:50;92583.19;;;3.31;67.40
39613;BME280;25303;48.896;13.342;2023-04-26T03:08:32;92580.88;;;3.28;67.37
39613;BME280;25303;48.896;13.342;2023-04-26T03:11:17;92583.66;;;3.25;67.49
39613;BME280;25303;48.896;13.342;2023-04-26T03:14:00;92583.78;;;3.24;67.47
39613;BME280;25303;48.896;13.342;2023-04-26T03:16:43;92593.25;;;3.22;67.48
39613;BME280;25303;48.896;13.342;2023-04-26T03:19:28;92588.41;;;3.18;67.55
39613;BME280;25303;48.896;13.342;2023-04-26T03:22:11;92585.44;;;3.13;67.47
39613;BME280;25303;48.896;13.342;2023-04-26T03:24:56;92589.00;;;3.11;67.49
39613;BME280;25303;48.896;13.342;2023-04-26T03:27:41;92590.97;;;3.07;67.60
39613;BME280;25303;48.896;13.342;2023-04-26T03:30:24;92586.13;;;3.04;67.77
39613;BME280;25303;48.896;13.342;2023-04-26T03:33:07;92586.25;;;3.02;67.57
39613;BME280;25303;48.896;13.342;2023-04-26T03:35:52;92585.44;;;3.02;67.69
39613;BME280;25303;48.896;13.342;2023-04-26T03:38:35;92584.06;;;2.98;67.73
39613;BME280;25303;48.896;13.342;2023-04-26T03:41:18;92584.16;;;2.96;67.74
39613;BME280;25303;48.896;13.342;2023-04-26T03:44:01;92590.19;;;2.95;67.83
39613;BME280;25303;48.896;13.342;2023-04-26T03:46:45;92591.94;;;2.95;67.76
39613;BME280;25303;48.896;13.342;2023-04-26T03:49:28;92587.75;;;2.94;67.78
39613;BME280;25303;48.896;13.342;2023-04-26T03:52:12;92598.97;;;2.91;67.87
39613;BME280;25303;48.896;13.342;2023-04-26T03:54:55;92597.34;;;2.90;67.71
39613;BME280;25303;48.896;13.342;2023-04-26T03:57:38;92596.53;;;2.89;67.76
39613;BME280;25303;48.896;13.342;2023-04-26T04:00:21;92598.28;;;2.89;67.83
39613;BME280;25303;48.896;13.342;2023-04-26T04:03:05;92602.69;;;2.87;67.73
39613;BME280;25303;48.896;13.342;2023-04-26T04:05:49;92596.09;;;2.84;67.86
39613;BME280;25303;48.896;13.342;2023-04-26T04:08:33;92598.88;;;2.81;67.50
39613;BME280;25303;48.896;13.342;2023-04-26T04:11:16;92593.19;;;2.78;67.60
39613;BME280;25303;48.896;13.342;2023-04-26T04:13:59;92603.38;;;2.78;67.72
39613;BME280;25303;48.896;13.342;2023-04-26T04:16:43;92608.56;;;2.76;67.61
39613;BME280;25303;48.896;13.342;2023-04-26T04:19:26;92609.38;;;2.77;67.60
39613;BME280;25303;48.896;13.342;2023-04-26T04:22:09;92614.47;;;2.77;67.78
39613;BME280;25303;48.896;13.342;2023-04-26T04:24:55;92609.97;;;2.80;67.76
39613;BME280;25303;48.896;13.342;2023-04-26T04:27:38;92617.47;;;2.82;67.83
39613;BME280;25303;48.896;13.342;2023-04-26T04:30:24;92616.31;;;2.86;67.82
39613;BME280;25303;48.896;13.342;2023-04-26T04:33:07;92622.91;;;2.88;67.79
39613;BME280;25303;48.896;13.342;2023-04-26T04:35:51;92621.97;;;2.89;67.90
39613;BME280;25303;48.896;13.342;2023-04-26T04:38:34;92628.56;;;2.92;68.07
39613;BME280;25303;48.896;13.342;2023-04-26T04:41:20;92631.91;;;2.93;67.73
39613;BME280;25303;48.896;13.342;2023-04-26T04:44:04;92631.69;;;2.96;67.79
39613;BME280;25303;48.896;13.342;2023-04-26T04:46:48;92632.25;;;2.99;67.90
39613;BME280;25303;48.896;13.342;2023-04-26T04:49:32;92628.56;;;3.03;67.79
39613;BME280;25303;48.896;13.342;2023-04-26T04:52:15;92640.22;;;3.06;68.13
39613;BME280;25303;48.896;13.342;2023-04-26T04:54:59;92646.81;;;3.09;67.78
39613;BME280;25303;48.896;13.342;2023-04-26T04:57:44;92649.81;;;3.14;67.95
39613;BME280;25303;48.896;13.342;2023-04-26T05:00:27;92650.38;;;3.17;68.32
39613;BME280;25303;48.896;13.342;2023-04-26T05:03:18;92655.25;;;3.21;68.05
39613;BME280;25303;48.896;13.342;2023-04-26T05:06:03;92649.78;;;3.25;68.01
39613;BME280;25303;48.896;13.342;2023-04-26T05:08:46;92651.31;;;3.28;67.84
39613;BME280;25303;48.896;13.342;2023-04-26T05:11:30;92647.47;;;3.33;67.63
39613;BME280;25303;48.896;13.342;2023-04-26T05:14:16;92645.41;;;3.39;67.64
39613;BME280;25303;48.896;13.342;2023-04-26T05:16:59;92648.50;;;3.42;67.56
39613;BME280;25303;48.896;13.342;2023-04-26T05:19:42;92650.81;;;3.45;67.59
39613;BME280;25303;48.896;13.342;2023-04-26T05:22:25;92654.06;;;3.47;67.19
39613;BME280;25303;48.896;13.342;2023-04-26T05:25:09;92653.94;;;3.49;67.13
39613;BME280;25303;48.896;13.342;2023-04-26T05:27:53;92664.91;;;3.49;67.01
39613;BME280;25303;48.896;13.342;2023-04-26T05:30:49;92652.19;;;3.49;66.94
39613;BME280;25303;48.896;13.342;2023-04-26T05:33:52;92665.84;;;3.48;66.97
39613;BME280;25303;48.896;13.342;2023-04-26T05:36:44;92678.69;;;3.47;66.88
39613;BME280;25303;48.896;13.342;2023-04-26T05:39:27;92675.44;;;3.45;66.87
39613;BME280;25303;48.896;13.342;2023-04-26T05:42:10;92674.53;;;3.46;66.65
39613;BME280;25303;48.896;13.342;2023-04-26T05:44:56;92683.78;;;3.47;66.33
39613;BME280;25303;48.896;13.342;2023-04-26T05:47:42;92685.28;;;3.49;66.69
39613;BME280;25303;48.896;13.342;2023-04-26T05:50:25;92682.84;;;3.48;65.99
39613;BME280;25303;48.896;13.342;2023-04-26T05:53:08;92682.63;;;3.51;66.06
39613;BME280;25303;48.896;13.342;2023-04-26T05:55:51;92685.72;;;3.55;66.23
39613;BME280;25303;48.896;13.342;2023-04-26T05:58:34;92679.94;;;3.64;65.86
39613;BME280;25303;48.896;13.342;2023-04-26T06:01:18;92681.63;;;3.75;65.89
39613;BME280;25303;48.896;13.342;2023-04-26T06:04:02;92677.56;;;3.84;65.75
39613;BME280;25303;48.896;13.342;2023-04-26T06:06:56;92687.97;;;3.92;65.60
39613;BME280;25303;48.896;13.342;2023-04-26T06:09:39;92682.94;;;4.02;65.55
39613;BME280;25303;48.896;13.342;2023-04-26T06:12:22;92690.09;;;4.08;65.31
39613;BME280;25303;48.896;13.342;2023-04-26T06:15:07;92696.09;;;4.18;65.62
39613;BME280;25303;48.896;13.342;2023-04-26T06:17:52;92697.78;;;4.29;65.17
39613;BME280;25303;48.896;13.342;2023-04-26T06:20:36;92694.88;;;4.34;64.11
39613;BME280;25303;48.896;13.342;2023-04-26T06:23:21;92694.34;;;4.40;63.90
39613;BME280;25303;48.896;13.342;2023-04-26T06:26:04;92697.50;;;4.44;63.71
39613;BME280;25303;48.896;13.342;2023-04-26T06:28:47;92703.28;;;4.46;63.64
39613;BME280;25303;48.896;13.342;2023-04-26T06:31:30;92707.69;;;4.44;62.87
39613;BME280;25303;48.896;13.342;2023-04-26T06:34:13;92700.72;;;4.46;62.73
39613;BME280;25303;48.896;13.342;2023-04-26T06:36:57;92708.00;;;4.50;62.82
39613;BME280;25303;48.896;13.342;2023-04-26T06:39:41;92694.88;;;4.55;62.57
39613;BME280;25303;48.896;13.342;2023-04-26T06:42:26;92700.97;;;4.64;62.70
39613;BME280;25303;48.896;13.342;2023-04-26T06:45:24;92702.88;;;4.71;62.21
39613;BME280;25303;48.896;13.342;2023-04-26T06:48:08;92701.19;;;4.82;62.55
39613;BME280;25303;48.896;13.342;2023-04-26T06:50:51;92707.41;;;4.89;61.50
39613;BME280;25303;48.896;13.342;2023-04-26T06:53:35;92707.47;;;4.99;61.85
39613;BME280;25303;48.896;13.342;2023-04-26T06:56:19;92715.28;;;5.07;61.62
39613;BME280;25303;48.896;13.342;2023-04-26T06:59:03;92716.97;;;5.18;61.60
39613;BME280;25303;48.896;13.342;2023-04-26T07:01:47;92717.25;;;5.25;61.42
39613;BME280;25303;48.896;13.342;2023-04-26T07:04:30;92717.16;;;5.26;61.09
39613;BME280;25303;48.896;13.342;2023-04-26T07:07:13;92717.81;;;5.28;61.06
39613;BME280;25303;48.896;13.342;2023-04-26T07:09:59;92711.66;;;5.31;61.12
39613;BME280;25303;48.896;13.342;2023-04-26T07:12:42;92718.47;;;5.30;61.12
39613;BME280;25303;48.896;13.342;2023-04-26T07:15:25;92727.66;;;5.33;61.27
39613;BME280;25303;48.896;13.342;2023-04-26T07:18:08;92719.84;;;5.35;61.53
39613;BME280;25303;48.896;13.342;2023-04-26T07:20:51;92726.03;;;5.32;61.70
39613;BME280;25303;48.896;13.342;2023-04-26T07:23:34;92729.13;;;5.36;61.88
39613;BME280;25303;48.896;13.342;2023-04-26T07:26:18;92722.28;;;5.36;61.60
39613;BME280;25303;48.896;13.342;2023-04-26T07:29:01;92728.06;;;5.38;61.49
39613;BME280;25303;48.896;13.342;2023-04-26T07:31:45;92723.63;;;5.40;60.72
39613;BME280;25303;48.896;13.342;2023-04-26T07:34:28;92716.69;;;5.52;61.24
39613;BME280;25303;48.896;13.342;2023-04-26T07:37:10;92722.38;;;5.66;60.50
39613;BME280;25303;48.896;13.342;2023-04-26T07:39:53;92723.88;;;5.68;59.82
39613;BME280;25303;48.896;13.342;2023-04-26T07:42:39;92726.13;;;5.71;59.80
39613;BME280;25303;48.896;13.342;2023-04-26T07:45:22;92731.94;;;5.73;59.79
39613;BME280;25303;48.896;13.342;2023-04-26T07:48:05;92731.84;;;5.85;58.72
39613;BME280;25303;48.896;13.342;2023-04-26T07:50:48;92729.00;;;5.88;58.26
39613;BME280;25303;48.896;13.342;2023-04-26T07:53:32;92715.50;;;6.07;58.48
39613;BME280;25303;48.896;13.342;2023-04-26T07:56:15;92729.63;;;6.21;57.91
39613;BME280;25303;48.896;13.342;2023-04-26T07:58:59;92722.09;;;6.29;57.02
39613;BME280;25303;48.896;13.342;2023-04-26T08:01:43;92722.78;;;6.41;56.73
39613;BME280;25303;48.896;13.342;2023-04-26T08:04:30;92720.50;;;6.58;57.17
39613;BME280;25303;48.896;13.342;2023-04-26T08:07:15;92730.84;;;6.76;56.90
39613;BME280;25303;48.896;13.342;2023-04-26T08:09:58;92724.09;;;6.75;54.99
39613;BME280;25303;48.896;13.342;2023-04-26T08:12:41;92719.56;;;6.68;55.31
39613;BME280;25303;48.896;13.342;2023-04-26T08:15:25;92724.94;;;6.75;55.89
39613;BME280;25303;48.896;13.342;2023-04-26T08:18:08;92722.47;;;6.83;55.69
39613;BME280;25303;48.896;13.342;2023-04-26T08:20:51;92717.88;;;6.97;55.53
39613;BME280;25303;48.896;13.342;2023-04-26T08:23:36;92717.31;;;7.13;55.17
39613;BME280;25303;48.896;13.342;2023-04-26T08:26:19;92719.31;;;7.19;53.81
39613;BME280;25303;48.896;13.342;2023-04-26T08:29:02;92706.53;;;7.09;53.13
39613;BME280;25303;48.896;13.342;2023-04-26T08:31:46;92712.47;;;7.10;53.92
39613;BME280;25303;48.896;13.342;2023-04-26T08:34:29;92704.13;;;6.98;52.11
39613;BME280;25303;48.896;13.342;2023-04-26T08:37:12;92710.34;;;6.95;51.33
39613;BME280;25303;48.896;13.342;2023-04-26T08:39:56;92707.75;;;7.05;51.84
39613;BME280;25303;48.896;13.342;2023-04-26T08:42:40;92711.50;;;7.11;51.15
39613;BME280;25303;48.896;13.342;2023-04-26T08:45:24;92710.97;;;7.17;51.00
39613;BME280;25303;48.896;13.342;2023-04-26T08:48:10;92710.38;;;7.23;51.33
39613;BME280;25303;48.896;13.342;2023-04-26T08:50:56;92708.97;;;7.39;52.20
39613;BME280;25303;48.896;13.342;2023-04-26T08:53:39;92714.47;;;7.54;51.52
39613;BME280;25303;48.896;13.342;2023-04-26T08:56:23;92710.81;;;7.56;50.47
39613;BME280;25303;48.896;13.342;2023-04-26T08:59:07;92720.25;;;7.56;48.65
39613;BME280;25303;48.896;13.342;2023-04-26T09:01:52;92718.63;;;7.55;49.84
39613;BME280;25303;48.896;13.342;2023-04-26T09:04:36;92715.22;;;7.64;50.72
39613;BME280;25303;48.896;13.342;2023-04-26T09:07:20;92720.34;;;7.92;48.87
39613;BME280;25303;48.896;13.342;2023-04-26T09:10:04;92719.19;;;8.23;50.84
39613;BME280;25303;48.896;13.342;2023-04-26T09:12:50;92721.56;;;8.34;48.52
39613;BME280;25303;48.896;13.342;2023-04-26T09:15:33;92725.97;;;8.42;48.61
39613;BME280;25303;48.896;13.342;2023-04-26T09:18:17;92728.72;;;8.30;47.41
39613;BME280;25303;48.896;13.342;2023-04-26T09:21:03;92732.31;;;8.19;47.93
39613;BME280;25303;48.896;13.342;2023-04-26T09:23:56;92728.34;;;8.07;47.18
39613;BME280;25303;48.896;13.342;2023-04-26T09:26:39;92719.47;;;8.01;48.05
39613;BME280;25303;48.896;13.342;2023-04-26T09:29:22;92722.84;;;8.02;48.00
39613;BME280;25303;48.896;13.342;2023-04-26T09:32:05;92728.31;;;8.35;48.55
39613;BME280;25303;48.896;13.342;2023-04-26T09:34:49;92717.78;;;8.56;48.09
39613;BME280;25303;48.896;13.342;2023-04-26T09:37:35;92727.72;;;8.77;48.20
39613;BME280;25303;48.896;13.342;2023-04-26T09:40:36;92724.00;;;8.54;44.08
39613;BME280;25303;48.896;13.342;2023-04-26T09:43:21;92719.44;;;8.47;45.80
39613;BME280;25303;48.896;13.342;2023-04-26T09:46:04;92716.13;;;8.37;45.71
39613;BME280;25303;48.896;13.342;2023-04-26T09:48:59;92728.78;;;8.20;45.89
39613;BME280;25303;48.896;13.342;2023-04-26T09:51:58;92718.81;;;7.99;45.98
39613;BME280;25303;48.896;13.342;2023-04-26T09:54:44;92723.16;;;7.99;46.47
39613;BME280;25303;48.896;13.342;2023-04-26T09:57:27;92721.75;;;8.23;46.85
39613;BME280;25303;48.896;13.342;2023-04-26T10:00:11;92711.09;;;8.63;45.75
39613;BME280;25303;48.896;13.342;2023-04-26T10:02:56;92708.22;;;8.85;45.58
39613;BME280;25303;48.896;13.342;2023-04-26T10:05:39;92715.59;;;8.88;44.88
39613;BME280;25303;48.896;13.342;2023-04-26T10:08:22;92716.00;;;8.75;44.40
39613;BME280;25303;48.896;13.342;2023-04-26T10:11:07;92718.78;;;8.63;44.70
39613;BME280;25303;48.896;13.342;2023-04-26T10:13:52;92715.94;;;8.66;45.14
39613;BME280;25303;48.896;13.342;2023-04-26T10:16:36;92720.09;;;8.68;45.34
39613;BME280;25303;48.896;13.342;2023-04-26T10:19:21;92715.13;;;8.66;44.98
39613;BME280;25303;48.896;13.342;2023-04-26T10:22:07;92716.22;;;8.63;44.64
39613;BME280;25303;48.896;13.342;2023-04-26T10:24:52;92716.00;;;8.75;44.48
39613;BME280;25303;48.896;13.342;2023-04-26T10:27:50;92713.22;;;8.68;40.63
39613;BME280;25303;48.896;13.342;2023-04-26T10:30:55;92701.16;;;8.87;43.33
39613;BME280;25303;48.896;13.342;2023-04-26T10:33:39;92715.78;;;9.12;44.09
39613;BME280;25303;48.896;13.342;2023-04-26T10:36:22;92716.38;;;9.33;43.94
39613;BME280;25303;48.896;13.342;2023-04-26T10:39:19;92710.97;;;9.44;42.97
39613;BME280;25303;48.896;13.342;2023-04-26T10:42:19;92717.78;;;9.27;42.99
39613;BME280;25303;48.896;13.342;2023-04-26T10:45:25;92719.19;;;9.21;42.79
39613;BME280;25303;48.896;13.342;2023-04-26T10:48:16;92720.00;;;9.22;43.81
39613;BME280;25303;48.896;13.342;2023-04-26T10:51:09;92712.75;;;9.17;43.30
39613;BME280;25303;48.896;13.342;2023-04-26T10:53:57;92717.53;;;9.12;43.42
39613;BME280;25303;48.896;13.342;2023-04-26T10:56:50;92715.47;;;9.16;43.68
39613;BME280;25303;48.896;13.342;2023-04-26T10:59:33;92719.47;;;9.10;43.58
39613;BME280;25303;48.896;13.342;2023-04-26T11:03:03;92707.41;;;9.37;44.01
39613;BME280;25303;48.896;13.342;2023-04-26T11:05:52;92705.44;;;9.31;42.91
39613;BME280;25303;48.896;13.342;2023-04-26T11:08:36;92698.09;;;9.36;43.67
39613;BME280;25303;48.896;13.342;2023-04-26T11:11:24;92702.00;;;9.48;43.89
39613;BME280;25303;48.896;13.342;2023-04-26T11:14:10;92696.56;;;9.51;43.75
39613;BME280;25303;48.896;13.342;2023-04-26T11:16:54;92700.16;;;9.67;44.16
39613;BME280;25303;48.896;13.342;2023-04-26T11:19:40;92701.94;;;9.75;43.88
39613;BME280;25303;48.896;13.342;2023-04-26T11:22:23;92689.97;;;9.57;42.14
39613;BME280;25303;48.896;13.342;2023-04-26T11:25:06;92698.28;;;9.42;43.12
39613;BME280;25303;48.896;13.342;2023-04-26T11:27:49;92696.31;;;9.36;43.32
39613;BME280;25303;48.896;13.342;2023-04-26T11:30:32;92690.69;;;9.33;43.37
39613;BME280;25303;48.896;13.342;2023-04-26T11:33:16;92690.53;;;9.34;43.72
39613;BME280;25303;48.896;13.342;2023-04-26T11:36:02;92700.00;;;9.34;43.67
39613;BME280;25303;48.896;13.342;2023-04-26T11:38:46;92699.34;;;9.32;43.41
39613;BME280;25303;48.896;13.342;2023-04-26T11:41:29;92699.28;;;9.50;44.05
39613;BME280;25303;48.896;13.342;2023-04-26T11:44:12;92693.09;;;9.77;42.64
39613;BME280;25303;48.896;13.342;2023-04-26T11:47:00;92687.06;;;9.95;42.59
39613;BME280;25303;48.896;13.342;2023-04-26T11:49:45;92686.59;;;10.08;42.30
39613;BME280;25303;48.896;13.342;2023-04-26T11:52:29;92694.66;;;10.21;42.63
39613;BME280;25303;48.896;13.342;2023-04-26T11:55:12;92687.13;;;10.19;41.41
39613;BME280;25303;48.896;13.342;2023-04-26T11:57:55;92697.25;;;10.21;42.48
39613;BME280;25303;48.896;13.342;2023-04-26T12:00:56;92704.47;;;10.09;42.04
39613;BME280;25303;48.896;13.342;2023-04-26T12:03:39;92701.91;;;10.09;42.64
39613;BME280;25303;48.896;13.342;2023-04-26T12:06:29;92705.25;;;10.10;42.40
39613;BME280;25303;48.896;13.342;2023-04-26T12:09:14;92712.84;;;10.28;42.98
39613;BME280;25303;48.896;13.342;2023-04-26T12:11:58;92704.09;;;10.63;42.61
39613;BME280;25303;48.896;13.342;2023-04-26T12:14:42;92697.63;;;10.68;41.49
39613;BME280;25303;48.896;13.342;2023-04-26T12:17:27;92702.16;;;10.57;41.56
39613;BME280;25303;48.896;13.342;2023-04-26T12:20:11;92709.72;;;10.42;41.17
39613;BME280;25303;48.896;13.342;2023-04-26T12:22:58;92710.78;;;10.31;41.16
39613;BME280;25303;48.896;13.342;2023-04-26T12:25:52;92716.84;;;10.22;40.93
39613;BME280;25303;48.896;13.342;2023-04-26T12:28:36;92707.53;;;10.13;41.99
39613;BME280;25303;48.896;13.342;2023-04-26T12:31:19;92714.91;;;10.08;42.14
39613;BME280;25303;48.896;13.342;2023-04-26T12:34:02;92718.75;;;10.03;41.96
39613;BME280;25303;48.896;13.342;2023-04-26T12:36:45;92714.06;;;9.91;41.40
39613;BME280;25303;48.896;13.342;2023-04-26T12:39:28;92714.84;;;9.91;41.68
39613;BME280;25303;48.896;13.342;2023-04-26T12:42:12;92707.31;;;9.90;41.46
39613;BME280;25303;48.896;13.342;2023-04-26T12:44:55;92714.38;;;9.87;41.26
39613;BME280;25303;48.896;13.342;2023-04-26T12:47:38;92720.94;;;9.82;41.23
39613;BME280;25303;48.896;13.342;2023-04-26T12:50:21;92717.84;;;9.78;41.47
39613;BME280;25303;48.896;13.342;2023-04-26T12:53:04;92718.81;;;9.77;41.61
39613;BME280;25303;48.896;13.342;2023-04-26T12:55:48;92718.31;;;9.73;41.83
39613;BME280;25303;48.896;13.342;2023-04-26T12:58:32;92717.19;;;9.68;41.60
39613;BME280;25303;48.896;13.342;2023-04-26T13:01:16;92713.31;;;9.64;40.89
39613;BME280;25303;48.896;13.342;2023-04-26T13:03:59;92710.50;;;9.83;42.14
39613;BME280;25303;48.896;13.342;2023-04-26T13:06:45;92717.47;;;9.99;41.68
39613;BME280;25303;48.896;13.342;2023-04-26T13:09:28;92719.25;;;10.07;41.57
39613;BME280;25303;48.896;13.342;2023-04-26T13:12:11;92715.69;;;10.00;41.09
39613;BME280;25303;48.896;13.342;2023-04-26T13:14:56;92716.47;;;9.92;41.09
39613;BME280;25303;48.896;13.342;2023-04-26T13:17:39;92713.22;;;9.82;41.02
39613;BME280;25303;48.896;13.342;2023-04-26T13:20:23;92709.81;;;9.73;41.55
39613;BME280;25303;48.896;13.342;2023-04-26T13:23:09;92716.41;;;9.76;41.86
39613;BME280;25303;48.896;13.342;2023-04-26T13:25:52;92708.63;;;10.02;41.62
39613;BME280;25303;48.896;13.342;2023-04-26T13:28:35;92697.25;;;10.21;41.14
39613;BME280;25303;48.896;13.342;2023-04-26T13:31:20;92705.78;;;10.22;40.54
39613;BME280;25303;48.896;13.342;2023-04-26T13:34:03;92708.94;;;9.99;40.30
39613;BME280;25303;48.896;13.342;2023-04-26T13:36:47;92703.78;;;9.91;40.54
39613;BME280;25303;48.896;13.342;2023-04-26T13:39:31;92703.44;;;9.85;40.76
39613;BME280;25303;48.896;13.342;2023-04-26T13:42:14;92701.66;;;9.86;40.95
39613;BME280;25303;48.896;13.342;2023-04-26T13:44:57;92697.16;;;9.88;40.51
39613;BME280;25303;48.896;13.342;2023-04-26T13:47:41;92700.84;;;9.85;40.69
39613;BME280;25303;48.896;13.342;2023-04-26T13:50:24;92708.44;;;9.95;41.53
39613;BME280;25303;48.896;13.342;2023-04-26T13:53:07;92702.47;;;9.86;40.98
39613;BME280;25303;48.896;13.342;2023-04-26T13:55:50;92706.06;;;10.02;41.45
39613;BME280;25303;48.896;13.342;2023-04-26T13:58:33;92699.19;;;10.36;41.34
39613;BME280;25303;48.896;13.342;2023-04-26T14:01:16;92697.25;;;10.38;39.85
39613;BME280;25303;48.896;13.342;2023-04-26T14:04:01;92704.34;;;10.36;40.05
39613;BME280;25303;48.896;13.342;2023-04-26T14:06:45;92703.38;;;10.28;40.60
39613;BME280;25303;48.896;13.342;2023-04-26T14:09:27;92705.94;;;10.28;39.47
39613;BME280;25303;48.896;13.342;2023-04-26T14:12:10;92701.28;;;10.24;40.25
39613;BME280;25303;48.896;13.342;2023-04-26T14:14:53;92711.22;;;10.18;40.20
39613;BME280;25303;48.896;13.342;2023-04-26T14:17:36;92704.00;;;10.14;40.37
39613;BME280;25303;48.896;13.342;2023-04-26T14:20:20;92704.97;;;10.13;40.71
39613;BME280;25303;48.896;13.342;2023-04-26T14:23:03;92705.47;;;10.33;40.53
39613;BME280;25303;48.896;13.342;2023-04-26T14:25:50;92709.66;;;10.34;39.87
39613;BME280;25303;48.896;13.342;2023-04-26T14:28:34;92705.13;;;10.19;39.16
39613;BME280;25303;48.896;13.342;2023-04-26T14:31:17;92698.53;;;10.17;40.02